Time;durP1;ratioP1;P1;durP2;ratioP2;P2;SDS_P1;SDS_P2;PMS_P1;PMS_P2;Temp;Humidity;BMP_temperature;BMP_pressure;BME280_temperature;BME280_humidity;BME280_pressure;Samples;Min_cycle;Max_cycle;Signal;HPM_P1;HPM_P2
2022/02/19 00:00:51;;;;;;;37.40;14.70;;;;;;;2.24;54.14;95550.56;5024769;28;20026;-82
2022/02/19 00:03:17;;;;;;;36.03;14.07;;;;;;;2.27;53.94;95548.53;5024367;28;20037;-83
2022/02/19 00:05:42;;;;;;;35.60;13.52;;;;;;;2.31;53.16;95549.97;5025920;28;20021;-84
2022/02/19 00:08:13;;;;;;;35.53;12.98;;;;;;;2.32;53.45;95562.22;5024194;28;20040;-84
2022/02/19 00:10:39;;;;;;;30.13;12.45;;;;;;;2.46;52.70;95574.38;5024347;28;20116;-85
2022/02/19 00:13:04;;;;;;;27.77;11.30;;;;;;;2.55;52.84;95588.66;5008033;28;20554;-85
2022/02/19 00:15:30;;;;;;;24.35;11.68;;;;;;;2.54;53.59;95578.19;5023741;28;20046;-84
2022/02/19 00:17:56;;;;;;;25.98;11.80;;;;;;;2.58;53.36;95577.81;5024546;28;20039;-83
2022/02/19 00:20:21;;;;;;;26.27;11.88;;;;;;;2.49;53.11;95575.91;5025387;28;20034;-83
2022/02/19 00:22:47;;;;;;;24.10;11.57;;;;;;;2.33;53.21;95577.16;5025313;28;20080;-82
2022/02/19 00:25:12;;;;;;;25.73;12.38;;;;;;;2.26;52.57;95578.59;5025500;28;20079;-82
2022/02/19 00:27:38;;;;;;;23.17;10.18;;;;;;;2.33;53.40;95586.88;5025279;28;20029;-81
2022/02/19 00:30:04;;;;;;;28.75;12.55;;;;;;;2.47;52.19;95580.47;5025144;28;20113;-81
2022/02/19 00:32:30;;;;;;;28.52;11.48;;;;;;;2.29;53.04;95578.34;5024486;28;20025;-82
2022/02/19 00:34:55;;;;;;;26.35;11.80;;;;;;;2.11;54.09;95580.66;5023892;28;20087;-82
2022/02/19 00:37:21;;;;;;;23.23;11.10;;;;;;;1.96;54.07;95582.69;5023952;28;20034;-82
2022/02/19 00:39:46;;;;;;;33.38;14.43;;;;;;;1.96;54.73;95583.56;5025238;28;20415;-82
2022/02/19 00:42:12;;;;;;;45.50;20.00;;;;;;;2.10;54.51;95589.53;5007424;28;20029;-82
2022/02/19 00:44:37;;;;;;;32.33;15.85;;;;;;;1.95;54.36;95588.97;5025398;28;20569;-81
2022/02/19 00:47:03;;;;;;;34.85;14.70;;;;;;;1.93;55.09;95572.34;5024968;28;20480;-82
2022/02/19 00:49:28;;;;;;;36.40;15.88;;;;;;;1.97;54.81;95563.22;5024757;28;20028;-82
2022/02/19 00:51:54;;;;;;;38.97;16.92;;;;;;;2.01;55.11;95558.53;5024386;28;20034;-83
2022/02/19 00:54:19;;;;;;;49.88;19.15;;;;;;;2.01;55.04;95577.03;5007509;28;20045;-82
2022/02/19 00:56:45;;;;;;;50.17;18.35;;;;;;;1.98;54.57;95578.13;5024895;28;20507;-82
2022/02/19 00:59:10;;;;;;;52.55;18.48;;;;;;;2.03;54.60;95578.59;5023596;28;20025;-83
2022/02/19 01:01:37;;;;;;;45.30;18.20;;;;;;;1.95;55.35;95550.09;5023744;28;20423;-82
2022/02/19 01:04:02;;;;;;;36.45;16.20;;;;;;;1.81;55.56;95551.19;5023414;28;20040;-82
2022/02/19 01:06:28;;;;;;;39.17;16.58;;;;;;;1.45;56.73;95558.38;5022499;28;20415;-83
2022/02/19 01:08:53;;;;;;;36.60;14.32;;;;;;;1.20;57.75;95561.06;5024673;28;20032;-80
2022/02/19 01:11:19;;;;;;;23.88;12.23;;;;;;;1.52;56.75;95556.94;5040454;28;20044;-83
2022/02/19 01:13:46;;;;;;;31.63;13.20;;;;;;;1.21;58.25;95562.75;5024903;28;20030;-82
2022/02/19 01:16:11;;;;;;;31.35;12.10;;;;;;;1.37;57.34;95560.75;5024679;28;20045;-83
2022/02/19 01:18:36;;;;;;;38.45;15.30;;;;;;;1.36;57.62;95570.47;5025474;28;20021;-83
2022/02/19 01:21:02;;;;;;;36.38;14.50;;;;;;;1.39;58.12;95564.94;5024253;28;20025;-83
2022/02/19 01:23:27;;;;;;;33.15;14.18;;;;;;;1.44;58.30;95565.44;5023932;28;20044;-82
2022/02/19 01:25:53;;;;;;;33.90;15.50;;;;;;;1.73;56.48;95561.50;5039673;28;20017;-83
2022/02/19 01:28:18;;;;;;;30.85;14.18;;;;;;;1.52;57.76;95558.72;5007352;28;20028;-85
2022/02/19 01:30:44;;;;;;;38.80;16.52;;;;;;;1.40;57.42;95558.72;5023523;28;20026;-83
2022/02/19 01:33:09;;;;;;;38.15;15.10;;;;;;;1.44;57.56;95556.66;5024760;28;20026;-83
2022/02/19 01:35:34;;;;;;;37.47;16.73;;;;;;;1.50;58.13;95560.66;5025190;28;20021;-84
2022/02/19 01:38:00;;;;;;;35.60;15.98;;;;;;;1.42;57.44;95550.69;5023603;28;20075;-83
2022/02/19 01:40:25;;;;;;;42.85;17.23;;;;;;;1.42;58.37;95553.31;5027993;28;20092;-84
2022/02/19 01:42:51;;;;;;;43.50;16.95;;;;;;;1.43;57.66;95550.56;5028312;28;20083;-84
2022/02/19 01:45:17;;;;;;;33.05;14.95;;;;;;;1.54;57.03;95535.66;5027868;28;20411;-83
2022/02/19 01:47:43;;;;;;;41.58;16.08;;;;;;;1.68;57.05;95542.50;5027288;28;20030;-84
2022/02/19 01:50:08;;;;;;;40.95;17.10;;;;;;;1.39;56.88;95545.63;5010758;28;20530;-82
2022/02/19 01:52:35;;;;;;;36.83;17.42;;;;;;;1.36;56.68;95544.03;5028682;28;20033;-85
2022/02/19 01:55:00;;;;;;;33.63;15.73;;;;;;;1.17;57.69;95541.97;5010453;28;20112;-84
2022/02/19 01:57:26;;;;;;;34.20;15.38;;;;;;;1.20;57.29;95542.56;5011010;28;20562;-83
2022/02/19 01:59:51;;;;;;;33.80;14.98;;;;;;;1.17;57.77;95547.25;5028410;28;20026;-84
2022/02/19 02:02:17;;;;;;;36.80;14.82;;;;;;;1.11;58.20;95549.38;5027352;28;20039;-84
2022/02/19 02:04:42;;;;;;;32.45;14.80;;;;;;;1.12;58.53;95555.50;5027011;28;20175;-83
2022/02/19 02:07:08;;;;;;;29.65;15.02;;;;;;;1.34;56.75;95552.09;5026958;28;20037;-84
2022/02/19 02:09:37;;;;;;;33.38;15.30;;;;;;;1.47;56.08;95557.28;5026693;28;20029;-84
2022/02/19 02:12:03;;;;;;;35.50;13.93;;;;;;;1.40;57.14;95560.50;5010747;28;20084;-86
2022/02/19 02:14:28;;;;;;;28.83;14.52;;;;;;;1.31;56.72;95549.69;5028502;28;20033;-83
2022/02/19 02:16:54;;;;;;;37.80;18.00;;;;;;;1.00;57.94;95548.53;5027725;28;20045;-84
2022/02/19 02:19:19;;;;;;;38.97;15.57;;;;;;;0.98;58.04;95552.09;5027008;28;20087;-84
2022/02/19 02:21:45;;;;;;;82.18;38.63;;;;;;;1.08;57.22;95551.44;5026624;28;20038;-81
2022/02/19 02:24:10;;;;;;;39.63;18.73;;;;;;;1.15;57.79;95550.00;5028627;28;20506;-82
2022/02/19 02:26:36;;;;;;;27.00;13.20;;;;;;;1.00;58.85;95557.25;5027863;28;20041;-83
2022/02/19 02:29:03;;;;;;;33.10;13.27;;;;;;;1.09;58.03;95550.47;5010295;28;20118;-83
2022/02/19 02:31:28;;;;;;;30.92;13.60;;;;;;;1.22;57.77;95550.38;5026562;28;20049;-83
2022/02/19 02:33:53;;;;;;;24.60;12.38;;;;;;;1.33;57.46;95545.13;5026367;28;20022;-83
2022/02/19 02:36:19;;;;;;;26.60;13.75;;;;;;;1.37;56.44;95548.34;5027477;28;20079;-82
2022/02/19 02:38:45;;;;;;;28.63;13.23;;;;;;;1.37;56.94;95540.44;5027557;28;20029;-83
2022/02/19 02:41:10;;;;;;;30.02;13.60;;;;;;;1.29;57.58;95542.84;5026177;28;20021;-82
2022/02/19 02:43:36;;;;;;;28.02;13.82;;;;;;;1.19;56.74;95550.63;5009449;28;20282;-82
2022/02/19 02:46:01;;;;;;;36.55;19.98;;;;;;;0.89;58.33;95560.72;5026382;28;20021;-82
2022/02/19 02:48:27;;;;;;;42.85;20.65;;;;;;;0.87;58.88;95552.09;5025787;28;20044;-82
2022/02/19 02:50:54;;;;;;;63.17;22.65;;;;;;;0.71;59.68;95552.38;5027028;28;20037;-82
2022/02/19 02:53:20;;;;;;;41.88;21.55;;;;;;;0.74;59.06;95554.78;5027421;28;20022;-83
2022/02/19 02:55:45;;;;;;;49.90;21.25;;;;;;;0.70;59.67;95556.81;5027284;28;20055;-82
2022/02/19 02:58:11;;;;;;;37.83;19.50;;;;;;;0.64;59.67;95559.03;5025902;28;20476;-81
2022/02/19 03:00:36;;;;;;;41.10;18.50;;;;;;;0.51;59.22;95556.44;5027473;28;20396;-84
2022/02/19 03:03:02;;;;;;;41.85;19.58;;;;;;;0.53;59.02;95552.75;5025690;28;20021;-81
2022/02/19 03:05:27;;;;;;;42.75;17.77;;;;;;;0.52;58.76;95561.63;5026928;28;20407;-83
2022/02/19 03:07:53;;;;;;;41.65;17.50;;;;;;;0.33;59.26;95555.03;5025977;28;20445;-83
2022/02/19 03:10:18;;;;;;;35.30;16.48;;;;;;;0.38;59.47;95552.06;5009179;28;20064;-83
2022/02/19 03:12:45;;;;;;;32.50;15.80;;;;;;;0.50;58.67;95552.97;5027491;28;20021;-84
2022/02/19 03:15:10;;;;;;;37.20;15.43;;;;;;;0.56;58.79;95547.25;5025152;28;20408;-82
2022/02/19 03:17:37;;;;;;;39.58;16.27;;;;;;;0.49;58.03;95546.00;5025376;28;20041;-82
2022/02/19 03:20:03;;;;;;;32.75;14.52;;;;;;;0.44;58.55;95548.13;5025649;28;20104;-82
2022/02/19 03:22:29;;;;;;;40.10;16.42;;;;;;;0.40;58.78;95549.31;5009014;28;20424;-83
2022/02/19 03:24:54;;;;;;;39.95;16.20;;;;;;;0.37;59.35;95558.31;5027126;28;20036;-83
2022/02/19 03:27:22;;;;;;;38.75;14.98;;;;;;;0.48;58.57;95561.00;5025406;28;20044;-81
2022/02/19 03:29:47;;;;;;;29.60;14.77;;;;;;;0.54;58.29;95554.44;5042494;28;20467;-82
2022/02/19 03:32:12;;;;;;;37.10;15.25;;;;;;;0.52;58.77;95558.97;5026936;28;20024;-83
2022/02/19 03:34:38;;;;;;;38.72;14.75;;;;;;;0.54;58.74;95554.44;5025810;28;20033;-82
2022/02/19 03:37:04;;;;;;;34.47;15.00;;;;;;;0.69;57.92;95567.47;5025592;28;20327;-82
2022/02/19 03:39:29;;;;;;;38.45;16.35;;;;;;;0.61;57.56;95566.22;5008467;28;20057;-82
2022/02/19 03:41:54;;;;;;;35.17;15.25;;;;;;;0.49;57.87;95570.63;5009068;28;20026;-82
2022/02/19 03:44:20;;;;;;;36.53;15.40;;;;;;;0.50;57.74;95571.44;5026584;28;20468;-82
2022/02/19 03:46:45;;;;;;;36.70;15.25;;;;;;;0.59;57.11;95578.72;5027067;28;20041;-81
2022/02/19 03:49:11;;;;;;;34.40;16.33;;;;;;;0.55;58.25;95579.88;5009744;28;20041;-82
2022/02/19 03:51:36;;;;;;;38.45;16.70;;;;;;;0.52;57.50;95580.09;5027235;28;20064;-83
2022/02/19 03:54:02;;;;;;;34.38;15.57;;;;;;;0.30;57.28;95578.16;5045270;28;20095;-82
2022/02/19 03:56:27;;;;;;;37.53;15.88;;;;;;;0.30;58.13;95591.34;5049270;28;20685;-83
2022/02/19 03:58:53;;;;;;;35.28;15.88;;;;;;;-0.31;59.82;95577.09;5050737;28;20033;-81
2022/02/19 04:01:18;;;;;;;40.20;16.33;;;;;;;-0.12;60.12;95576.66;5050412;28;20038;-82
2022/02/19 04:03:43;;;;;;;38.53;16.08;;;;;;;-0.24;60.36;95574.88;5036047;28;20096;-83
2022/02/19 04:06:09;;;;;;;36.20;16.48;;;;;;;-0.09;60.39;95567.69;5025244;28;20090;-83
2022/02/19 04:08:34;;;;;;;40.38;15.73;;;;;;;0.01;60.19;95568.75;5026186;28;20030;-83
2022/02/19 04:11:00;;;;;;;38.47;17.17;;;;;;;-0.29;61.07;95567.31;5040356;28;20040;-84
2022/02/19 04:13:25;;;;;;;34.28;16.88;;;;;;;-0.13;60.34;95572.34;5020285;28;20040;-84
2022/02/19 04:15:51;;;;;;;37.58;15.38;;;;;;;-0.19;60.76;95562.22;5022410;28;20045;-83
2022/02/19 04:18:16;;;;;;;35.70;16.02;;;;;;;-0.18;61.29;95563.91;5022543;28;20052;-82
2022/02/19 04:20:42;;;;;;;36.85;16.00;;;;;;;-0.27;61.69;95571.50;5021615;28;20021;-82
2022/02/19 04:23:07;;;;;;;35.28;15.98;;;;;;;-0.14;61.48;95574.13;5021419;28;20032;-82
2022/02/19 04:25:33;;;;;;;31.88;15.00;;;;;;;-0.05;60.18;95556.81;5019866;28;20030;-81
2022/02/19 04:28:03;;;;;;;39.17;16.38;;;;;;;-0.21;60.88;95562.31;5021238;28;20037;-83
2022/02/19 04:30:29;;;;;;;38.63;16.25;;;;;;;-0.42;61.92;95560.22;5001259;28;20377;-81
2022/02/19 04:32:56;;;;;;;38.75;16.08;;;;;;;-0.67;62.47;95561.91;5022144;28;20083;-81
2022/02/19 04:35:25;;;;;;;39.28;17.38;;;;;;;-0.44;62.31;95559.50;5020405;28;20057;-81
2022/02/19 04:37:51;;;;;;;39.85;17.15;;;;;;;-0.38;62.28;95561.72;5017149;28;20108;-81
2022/02/19 04:40:16;;;;;;;38.25;16.83;;;;;;;-0.30;61.57;95561.19;5021858;28;20033;-82
2022/02/19 04:42:43;;;;;;;37.28;17.33;;;;;;;-0.75;62.60;95567.72;5019567;28;20021;-82
2022/02/19 04:45:12;;;;;;;38.05;17.00;;;;;;;-1.29;64.39;95573.91;5022328;28;20123;-84
2022/02/19 04:47:37;;;;;;;39.75;18.08;;;;;;;-1.23;64.66;95570.88;5020919;28;20073;-83
2022/02/19 04:50:04;;;;;;;33.72;16.40;;;;;;;-0.96;64.00;95572.63;5004694;28;20931;-83
2022/02/19 04:52:30;;;;;;;40.20;16.40;;;;;;;-0.90;64.13;95574.00;5021391;28;20025;-83
2022/02/19 04:54:55;;;;;;;38.00;17.30;;;;;;;-0.57;62.93;95572.69;5020507;28;20033;-83
2022/02/19 04:57:21;;;;;;;36.13;16.67;;;;;;;-0.38;62.81;95569.63;5023889;28;20026;-84
2022/02/19 04:59:46;;;;;;;33.33;15.80;;;;;;;-0.10;61.50;95571.28;5000117;28;20038;-84
2022/02/19 05:02:12;;;;;;;33.08;14.85;;;;;;;-0.15;61.28;95574.25;5022174;28;20033;-82
2022/02/19 05:04:37;;;;;;;30.27;15.05;;;;;;;-0.59;62.51;95568.44;5021388;28;20022;-83
2022/02/19 05:07:03;;;;;;;32.33;14.48;;;;;;;-0.54;61.93;95580.38;5003722;28;20041;-83
2022/02/19 05:09:28;;;;;;;27.20;13.63;;;;;;;-0.43;61.41;95579.63;5021760;28;20018;-83
2022/02/19 05:11:54;;;;;;;34.15;15.73;;;;;;;-0.61;62.70;95575.63;5021039;28;20026;-82
2022/02/19 05:14:19;;;;;;;34.58;15.68;;;;;;;-0.53;62.62;95578.56;5025359;28;20030;-83
2022/02/19 05:16:45;;;;;;;31.23;15.35;;;;;;;-0.47;62.29;95580.81;5025293;28;20049;-82
2022/02/19 05:19:10;;;;;;;33.50;14.68;;;;;;;-0.47;61.34;95585.22;5008069;28;20021;-82
2022/02/19 05:21:36;;;;;;;31.10;14.75;;;;;;;-0.39;61.68;95591.63;5024920;28;20033;-83
2022/02/19 05:24:01;;;;;;;39.72;16.42;;;;;;;-0.45;61.87;95580.69;5023123;28;20215;-85
2022/02/19 05:26:27;;;;;;;38.70;15.57;;;;;;;-0.38;61.96;95580.16;5027279;28;20080;-82
2022/02/19 05:28:52;;;;;;;29.73;15.77;;;;;;;-0.17;61.01;95581.41;5024180;28;20514;-82
2022/02/19 05:31:18;;;;;;;49.72;18.50;;;;;;;-0.18;60.97;95577.09;5026997;28;20531;-82
2022/02/19 05:33:43;;;;;;;47.67;20.52;;;;;;;-0.38;61.78;95574.91;5024725;28;20033;-82
2022/02/19 05:36:09;;;;;;;43.42;20.75;;;;;;;-0.27;61.63;95571.50;5026657;28;20017;-82
2022/02/19 05:38:34;;;;;;;41.58;18.10;;;;;;;-0.29;62.09;95564.66;5017468;28;20025;-83
2022/02/19 05:41:00;;;;;;;34.03;16.42;;;;;;;-0.09;60.90;95576.44;5023310;28;20547;-83
2022/02/19 05:43:25;;;;;;;42.40;17.02;;;;;;;-0.13;61.45;95567.91;5025059;28;20510;-82
2022/02/19 05:45:51;;;;;;;32.60;15.35;;;;;;;-0.19;61.56;95578.03;5007137;28;20083;-83
2022/02/19 05:48:16;;;;;;;49.10;19.10;;;;;;;-0.16;61.59;95572.56;5024528;28;20030;-85
2022/02/19 05:50:43;;;;;;;43.65;18.17;;;;;;;-0.24;62.13;95570.44;5025449;28;20032;-83
2022/02/19 05:53:11;;;;;;;42.75;18.42;;;;;;;-0.10;61.64;95558.09;5008414;28;20127;-83
2022/02/19 05:55:36;;;;;;;41.42;18.42;;;;;;;0.09;60.87;95553.22;5008847;28;20540;-83
2022/02/19 05:58:02;;;;;;;34.65;18.02;;;;;;;0.19;60.56;95555.19;5006247;28;20408;-84
2022/02/19 06:00:27;;;;;;;49.20;19.85;;;;;;;0.04;61.55;95551.84;5009277;28;20033;-83
2022/02/19 06:02:53;;;;;;;72.82;26.35;;;;;;;0.23;61.30;95552.22;5006820;28;20463;-82
2022/02/19 06:05:18;;;;;;;62.20;24.20;;;;;;;0.39;61.04;95550.28;5024353;28;20033;-82
2022/02/19 06:07:43;;;;;;;61.15;24.10;;;;;;;0.67;60.25;95548.25;5023924;28;20038;-82
2022/02/19 06:10:10;;;;;;;61.13;24.08;;;;;;;0.62;60.30;95569.72;5029666;28;20029;-83
2022/02/19 06:12:35;;;;;;;57.38;24.60;;;;;;;0.44;61.16;95570.09;5034956;28;20522;-83
2022/02/19 06:15:01;;;;;;;51.47;23.90;;;;;;;0.68;60.75;95577.19;5003763;28;20030;-82
2022/02/19 06:17:27;;;;;;;54.80;24.60;;;;;;;0.84;60.04;95594.53;5025400;28;20508;-84
2022/02/19 06:19:53;;;;;;;58.78;23.20;;;;;;;1.04;59.97;95602.78;5006522;28;20052;-82
2022/02/19 06:22:18;;;;;;;55.15;24.55;;;;;;;1.32;58.98;95596.28;5026709;28;20025;-84
2022/02/19 06:24:44;;;;;;;49.70;22.73;;;;;;;1.60;57.85;95609.22;5025272;28;20554;-82
2022/02/19 06:27:09;;;;;;;43.00;21.63;;;;;;;1.90;57.23;95609.63;5008086;28;20615;-83
2022/02/19 06:29:34;;;;;;;44.70;21.10;;;;;;;2.00;58.18;95602.66;5024831;28;20026;-83
2022/02/19 06:32:00;;;;;;;90.45;37.95;;;;;;;2.08;57.71;95605.53;5024868;28;20412;-82
2022/02/19 06:34:25;;;;;;;47.40;23.33;;;;;;;2.27;56.66;95612.06;5025700;28;20408;-82
2022/02/19 06:36:51;;;;;;;47.42;21.25;;;;;;;2.50;56.04;95621.78;5024169;28;20029;-82
2022/02/19 06:39:16;;;;;;;51.00;23.17;;;;;;;2.44;56.48;95620.44;5023076;28;20092;-83
2022/02/19 06:41:42;;;;;;;52.03;22.25;;;;;;;2.54;56.07;95626.72;5024548;28;20651;-85
2022/02/19 06:44:07;;;;;;;51.30;22.85;;;;;;;2.68;56.14;95628.25;5025069;28;20412;-84
2022/02/19 06:46:32;;;;;;;53.38;22.55;;;;;;;2.83;55.78;95628.81;5025260;28;20389;-83
2022/02/19 06:48:58;;;;;;;47.03;22.83;;;;;;;3.03;55.33;95623.69;5022170;28;20030;-83
2022/02/19 06:51:25;;;;;;;42.72;20.95;;;;;;;3.17;54.21;95619.09;5025514;28;20034;-85
2022/02/19 06:53:56;;;;;;;52.33;21.65;;;;;;;3.25;54.28;95613.13;5024468;28;20037;-84
2022/02/19 06:56:24;;;;;;;45.60;21.88;;;;;;;3.48;53.82;95613.91;5009018;28;20069;-84
2022/02/19 06:58:50;;;;;;;49.47;20.88;;;;;;;3.59;53.48;95618.28;5022014;28;20029;-82
2022/02/19 07:01:15;;;;;;;38.22;19.52;;;;;;;3.76;53.48;95614.22;5023889;28;20026;-83
2022/02/19 07:03:41;;;;;;;34.78;18.13;;;;;;;3.86;52.53;95613.41;5025036;28;20030;-82
2022/02/19 07:06:06;;;;;;;42.20;18.95;;;;;;;4.00;52.09;95623.69;5022388;28;20474;-82
2022/02/19 07:08:32;;;;;;;25.65;12.73;;;;;;;4.05;51.32;95612.69;5024094;28;20041;-78
2022/02/19 07:10:58;;;;;;;26.70;10.82;;;;;;;3.99;51.17;95616.72;5008304;28;20538;-78
2022/02/19 07:13:23;;;;;;;20.08;9.95;;;;;;;3.74;52.26;95624.09;5024774;28;20025;-77
2022/02/19 07:15:48;;;;;;;21.42;9.88;;;;;;;3.97;51.91;95610.69;5024027;28;20059;-80
2022/02/19 07:18:14;;;;;;;21.00;10.70;;;;;;;3.77;52.04;95609.75;5026328;28;20041;-80
2022/02/19 07:20:39;;;;;;;21.08;11.43;;;;;;;3.97;52.50;95616.00;5025515;28;20037;-81
2022/02/19 07:23:05;;;;;;;25.20;12.38;;;;;;;4.16;52.17;95611.78;5025140;28;20580;-81
2022/02/19 07:25:30;;;;;;;27.15;12.80;;;;;;;4.17;51.60;95608.16;5024716;28;20496;-79
2022/02/19 07:27:56;;;;;;;31.98;14.05;;;;;;;4.23;50.94;95606.75;5024533;28;20034;-79
2022/02/19 07:30:21;;;;;;;28.42;13.98;;;;;;;4.37;51.35;95610.88;5025488;28;20075;-77
2022/02/19 07:32:53;;;;;;;32.28;15.25;;;;;;;4.56;51.24;95612.78;5023525;28;20042;-78
2022/02/19 07:35:19;;;;;;;29.58;15.60;;;;;;;4.65;50.96;95611.09;5024433;28;20025;-78
2022/02/19 07:37:44;;;;;;;34.35;17.20;;;;;;;4.86;50.58;95599.53;5023851;28;20025;-78
2022/02/19 07:40:10;;;;;;;35.83;18.58;;;;;;;4.97;50.80;95602.06;5007657;28;20021;-79
2022/02/19 07:42:35;;;;;;;32.50;18.40;;;;;;;5.06;49.20;95606.56;5025757;28;20060;-79
2022/02/19 07:45:01;;;;;;;33.88;18.77;;;;;;;5.21;50.32;95597.34;5007457;28;20025;-78
2022/02/19 07:47:28;;;;;;;36.88;19.60;;;;;;;5.17;49.54;95596.78;5023815;28;20816;-78
2022/02/19 07:58:26;;;;;;;31.23;15.50;;;;;;;5.82;49.25;95611.28;5024234;28;20107;-78
2022/02/19 08:00:53;;;;;;;28.08;14.38;;;;;;;5.92;48.09;95600.63;5024309;28;20022;-79
2022/02/19 08:03:23;;;;;;;29.67;15.65;;;;;;;6.09;48.85;95592.91;5007253;28;20053;-78
2022/02/19 08:05:49;;;;;;;28.40;16.08;;;;;;;6.05;47.93;95595.03;5023619;28;20439;-79
2022/02/19 08:08:14;;;;;;;30.55;16.27;;;;;;;5.74;48.92;95608.53;5024067;28;20032;-78
2022/02/19 08:10:40;;;;;;;32.50;16.73;;;;;;;5.98;48.63;95608.03;5025746;28;20025;-80
2022/02/19 08:13:08;;;;;;;24.40;14.93;;;;;;;6.14;48.29;95611.97;5024536;28;20030;-77
2022/02/19 08:15:37;;;;;;;30.05;15.23;;;;;;;6.37;47.68;95617.75;5024170;28;20042;-78
2022/02/19 08:18:03;;;;;;;30.90;16.52;;;;;;;6.57;47.15;95616.84;5024689;28;20100;-78
2022/02/19 08:20:30;;;;;;;35.03;16.98;;;;;;;6.77;47.26;95615.75;5025274;28;20025;-80
2022/02/19 08:22:55;;;;;;;30.50;15.63;;;;;;;6.88;46.94;95614.69;5008223;28;20175;-80
2022/02/19 08:25:21;;;;;;;30.75;16.30;;;;;;;7.04;46.63;95611.38;5023894;28;20033;-78
2022/02/19 08:27:46;;;;;;;29.95;16.27;;;;;;;7.15;46.08;95606.81;5026006;28;20097;-79
2022/02/19 08:30:12;;;;;;;30.17;15.95;;;;;;;7.29;45.84;95603.63;5021593;28;20088;-78
2022/02/19 08:32:37;;;;;;;26.35;15.18;;;;;;;7.37;45.42;95594.00;5018718;28;20126;-79
2022/02/19 08:35:03;;;;;;;26.15;15.32;;;;;;;7.53;45.99;95582.63;5026451;28;20086;-78
2022/02/19 08:37:29;;;;;;;33.10;16.05;;;;;;;7.69;44.98;95584.59;5020623;28;20038;-79
2022/02/19 08:39:54;;;;;;;29.63;16.67;;;;;;;7.59;44.67;95592.72;5014974;28;20053;-78
2022/02/19 08:42:20;;;;;;;29.17;16.15;;;;;;;7.62;44.53;95597.75;5017906;28;20382;-79
2022/02/19 08:44:45;;;;;;;26.23;15.27;;;;;;;7.77;44.26;95598.03;4988395;28;20037;-78
2022/02/19 08:47:11;;;;;;;32.58;16.67;;;;;;;7.88;43.70;95601.44;5014133;28;20033;-78
2022/02/19 08:49:36;;;;;;;30.65;16.10;;;;;;;7.38;43.83;95601.06;5011923;28;20025;-78
2022/02/19 08:52:02;;;;;;;32.25;17.95;;;;;;;7.58;44.01;95592.88;5002163;28;20020;-78
2022/02/19 08:54:29;;;;;;;27.17;16.75;;;;;;;7.79;43.65;95593.38;5030199;28;20040;-78
2022/02/19 08:56:54;;;;;;;28.45;15.32;;;;;;;7.98;43.05;95588.00;5023912;28;20025;-79
2022/02/19 08:59:20;;;;;;;32.15;13.65;;;;;;;8.07;42.54;95588.88;5023481;28;20033;-77
2022/02/19 09:01:45;;;;;;;24.40;11.63;;;;;;;8.21;41.42;95595.47;5029191;28;20029;-77
2022/02/19 09:04:11;;;;;;;24.45;13.15;;;;;;;8.28;40.69;95591.19;5026837;28;20024;-76
2022/02/19 09:06:36;;;;;;;23.02;12.52;;;;;;;8.23;41.07;95594.31;5043425;28;20108;-77
2022/02/19 09:09:06;;;;;;;21.08;12.02;;;;;;;8.39;39.75;95595.41;5044899;28;20033;-76
2022/02/19 09:11:35;;;;;;;25.27;12.95;;;;;;;8.45;38.98;95600.09;5037545;28;20029;-77
2022/02/19 09:14:04;;;;;;;28.60;13.82;;;;;;;8.53;39.71;95592.13;5003443;28;20034;-76
2022/02/19 09:16:32;;;;;;;25.15;13.38;;;;;;;8.70;40.57;95586.88;5003254;28;20042;-75
2022/02/19 09:18:58;;;;;;;21.95;11.95;;;;;;;9.04;39.64;95577.13;5002924;28;20029;-77
2022/02/19 09:21:23;;;;;;;21.30;12.18;;;;;;;9.25;38.58;95576.66;5002609;28;20026;-78
2022/02/19 09:23:49;;;;;;;20.48;10.77;;;;;;;9.52;38.33;95589.91;4986531;28;20026;-78
2022/02/19 09:26:14;;;;;;;23.77;7.03;;;;;;;9.70;36.58;95588.91;5004120;28;20048;-78
2022/02/19 09:28:39;;;;;;;22.00;6.57;;;;;;;9.76;36.50;95590.91;5004419;28;20034;-78
2022/02/19 09:31:05;;;;;;;16.73;6.88;;;;;;;9.96;36.61;95587.88;5004984;28;20026;-77
2022/02/19 09:33:31;;;;;;;16.20;7.30;;;;;;;10.02;36.01;95589.88;5003725;28;20053;-78
2022/02/19 09:35:57;;;;;;;17.08;7.22;;;;;;;10.24;36.13;95591.00;5004536;28;20025;-77
2022/02/19 09:38:22;;;;;;;12.85;6.35;;;;;;;10.36;35.57;95596.00;4987341;28;20048;-78
2022/02/19 09:40:48;;;;;;;20.35;7.80;;;;;;;10.35;35.54;95597.03;5005156;28;20161;-77
2022/02/19 09:43:16;;;;;;;13.18;6.13;;;;;;;10.59;35.39;95606.84;5003548;28;20022;-77
2022/02/19 09:45:41;;;;;;;14.55;6.10;;;;;;;10.75;34.46;95605.16;5003560;28;20022;-77
2022/02/19 09:48:09;;;;;;;14.85;5.32;;;;;;;10.66;34.71;95598.97;5003600;28;20056;-78
2022/02/19 09:50:34;;;;;;;12.35;5.53;;;;;;;10.66;34.30;95600.78;5003670;28;20554;-76
2022/02/19 09:53:03;;;;;;;14.52;5.43;;;;;;;10.62;34.79;95598.47;5003446;28;20026;-77
2022/02/19 09:55:29;;;;;;;14.18;6.00;;;;;;;10.67;34.35;95606.03;4987631;28;20099;-78
2022/02/19 09:57:54;;;;;;;12.73;5.22;;;;;;;10.70;34.40;95592.25;5004620;28;20440;-76
2022/02/19 10:00:46;;;;;;;12.27;5.78;;;;;;;10.72;34.08;95594.75;5007110;28;20026;-77
2022/02/19 10:03:21;;;;;;;12.45;5.40;;;;;;;10.69;33.62;95595.94;5006586;28;20034;-77
2022/02/19 10:05:46;;;;;;;14.02;5.75;;;;;;;10.80;33.95;95592.03;5008228;28;20044;-78
2022/02/19 10:08:12;;;;;;;11.57;5.28;;;;;;;10.86;34.42;95588.66;4990424;28;20409;-78
2022/02/19 10:10:39;;;;;;;9.07;5.20;;;;;;;11.02;33.67;95586.06;5007176;28;20029;-76
2022/02/19 10:13:04;;;;;;;9.82;4.80;;;;;;;11.02;32.86;95586.06;5006523;28;20049;-77
2022/02/19 10:15:44;;;;;;;13.98;5.07;;;;;;;11.08;33.45;95582.66;5007120;28;20585;-77
2022/02/19 10:18:29;;;;;;;11.60;4.85;;;;;;;11.18;33.07;95575.22;5006025;28;20056;-77
2022/02/19 10:21:13;;;;;;;13.27;4.70;;;;;;;11.27;34.09;95567.94;4990134;28;20096;-76
2022/02/19 10:23:41;;;;;;;12.75;5.28;;;;;;;11.37;32.87;95571.25;5008275;28;20032;-77
2022/02/19 10:26:07;;;;;;;13.70;5.15;;;;;;;11.39;32.95;95576.44;5006247;28;20092;-78
2022/02/19 10:28:32;;;;;;;8.60;4.40;;;;;;;11.35;33.20;95572.44;4990492;28;20117;-76
2022/02/19 10:31:10;;;;;;;10.13;4.47;;;;;;;11.53;33.00;95569.44;5007417;28;20030;-77
2022/02/19 10:33:36;;;;;;;8.27;3.60;;;;;;;11.47;32.79;95571.03;5006599;28;20117;-76
2022/02/19 10:36:01;;;;;;;13.75;4.57;;;;;;;11.36;32.50;95563.38;4989714;28;20030;-77
2022/02/19 10:38:27;;;;;;;11.02;4.22;;;;;;;11.46;32.69;95572.00;5006287;28;20045;-78
2022/02/19 10:40:53;;;;;;;8.05;4.13;;;;;;;11.42;33.01;95564.50;4989922;28;20029;-77
2022/02/19 10:43:22;;;;;;;9.57;4.05;;;;;;;11.44;32.70;95552.56;5007235;28;20033;-77
2022/02/19 10:45:55;;;;;;;10.88;3.70;;;;;;;11.36;33.56;95544.56;5006560;28;20061;-77
2022/02/19 10:48:31;;;;;;;11.25;3.83;;;;;;;11.52;32.88;95538.25;5005638;28;20037;-77
2022/02/19 10:51:14;;;;;;;8.65;3.95;;;;;;;11.57;32.20;95529.63;5007598;28;20508;-78
2022/02/19 10:53:49;;;;;;;9.98;3.70;;;;;;;11.73;32.40;95529.50;4990063;28;20497;-78
2022/02/19 10:56:16;;;;;;;9.80;3.38;;;;;;;11.79;32.09;95517.19;5005574;28;20037;-78
2022/02/19 10:59:04;;;;;;;9.80;4.03;;;;;;;11.91;31.75;95509.53;4990034;28;20104;-77
2022/02/19 11:01:47;;;;;;;10.90;3.67;;;;;;;11.94;31.63;95514.53;5005588;28;20032;-78
2022/02/19 11:04:14;;;;;;;8.02;3.20;;;;;;;12.06;31.20;95501.47;4990548;28;20463;-77
2022/02/19 11:06:40;;;;;;;7.32;3.00;;;;;;;12.14;31.22;95505.94;4989292;28;20030;-80
2022/02/19 11:09:06;;;;;;;16.67;3.13;;;;;;;12.13;31.95;95498.06;5005681;28;20032;-77
2022/02/19 11:11:35;;;;;;;10.48;3.53;;;;;;;12.17;31.41;95497.50;5007260;28;20021;-78
2022/02/19 11:14:04;;;;;;;12.57;3.78;;;;;;;12.26;32.26;95500.94;5005627;28;20408;-77
2022/02/19 11:16:30;;;;;;;7.15;3.85;;;;;;;12.38;32.40;95493.22;5005824;28;20065;-79
2022/02/19 11:18:56;;;;;;;11.27;4.10;;;;;;;12.46;32.41;95487.75;5005706;28;20121;-77
2022/02/19 11:21:21;;;;;;;13.02;4.60;;;;;;;12.46;32.43;95479.66;5007434;28;20042;-78
2022/02/19 11:23:46;;;;;;;13.40;4.85;;;;;;;12.55;32.31;95484.94;4992865;28;20033;-78
2022/02/19 11:26:12;;;;;;;8.20;4.88;;;;;;;12.60;32.18;95479.84;4992722;28;20412;-77
2022/02/19 11:28:37;;;;;;;8.48;3.78;;;;;;;12.63;32.32;95479.47;4994815;28;20220;-77